Terminal Aerodrome Forecast
Issued by NWS Sioux Falls, SD

Home | Current Version | Previous Version | Graphics & Text | Print | Product List | Glossary On
Versions: 1 2 3 4 5 6 7 8 9 10 11 12
000
FTUS43 KFSD 080500
TAFFSD
TAF
KFSD 080520Z 0806/0906 31010KT P6SM SKC
     FM081500 33015G22KT P6SM SCT040
     FM081800 32015G24KT P6SM BKN045
     FM090030 36005KT P6SM SCT060=

USA.gov is the U.S. government's official web portal to all federal, state and local government web resources and services.